sensor_id;sensor_type;location;lat;lon;timestamp;pressure;altitude;pressure_sealevel;temperature;humidity
77723;BME280;67811;42.656;23.394;2023-09-19T00:01:44;95456.25;;;15.99;68.27
77723;BME280;67811;42.656;23.394;2023-09-19T00:04:09;95458.91;;;15.92;68.89
77723;BME280;67811;42.656;23.394;2023-09-19T00:06:34;95450.06;;;15.98;68.70
77723;BME280;67811;42.656;23.394;2023-09-19T00:08:59;95458.50;;;16.02;68.69
77723;BME280;67811;42.656;23.394;2023-09-19T00:11:25;95455.59;;;16.03;68.79
77723;BME280;67811;42.656;23.394;2023-09-19T00:13:50;95460.34;;;16.01;68.88
77723;BME280;67811;42.656;23.394;2023-09-19T00:16:15;95462.84;;;15.90;69.39
77723;BME280;67811;42.656;23.394;2023-09-19T00:18:41;95457.25;;;15.98;69.95
77723;BME280;67811;42.656;23.394;2023-09-19T00:21:06;95460.50;;;16.13;68.82
77723;BME280;67811;42.656;23.394;2023-09-19T00:23:31;95450.28;;;15.97;69.31
77723;BME280;67811;42.656;23.394;2023-09-19T00:26:00;95459.34;;;15.89;69.54
77723;BME280;67811;42.656;23.394;2023-09-19T00:28:26;95445.38;;;15.80;70.79
77723;BME280;67811;42.656;23.394;2023-09-19T00:30:51;95451.53;;;15.74;70.41
77723;BME280;67811;42.656;23.394;2023-09-19T00:33:17;95451.97;;;15.65;71.74
77723;BME280;67811;42.656;23.394;2023-09-19T00:35:50;95446.59;;;15.85;73.39
77723;BME280;67811;42.656;23.394;2023-09-19T00:38:15;95442.34;;;16.35;69.66
77723;BME280;67811;42.656;23.394;2023-09-19T00:40:44;95443.63;;;16.77;69.41
77723;BME280;67811;42.656;23.394;2023-09-19T00:43:09;95448.16;;;17.08;68.74
77723;BME280;67811;42.656;23.394;2023-09-19T00:45:36;95445.91;;;17.62;65.59
77723;BME280;67811;42.656;23.394;2023-09-19T00:48:02;95446.25;;;17.47;64.30
77723;BME280;67811;42.656;23.394;2023-09-19T00:50:27;95437.19;;;16.85;65.77
77723;BME280;67811;42.656;23.394;2023-09-19T00:52:55;95424.47;;;16.29;68.77
77723;BME280;67811;42.656;23.394;2023-09-19T00:55:21;95430.84;;;16.28;69.35
77723;BME280;67811;42.656;23.394;2023-09-19T00:57:47;95433.56;;;16.15;70.87
77723;BME280;67811;42.656;23.394;2023-09-19T01:00:13;95413.81;;;16.67;70.95
77723;BME280;67811;42.656;23.394;2023-09-19T01:02:38;95427.59;;;17.09;67.25
77723;BME280;67811;42.656;23.394;2023-09-19T01:05:04;95432.84;;;16.91;66.13
77723;BME280;67811;42.656;23.394;2023-09-19T01:07:31;95437.38;;;15.67;70.30
77723;BME280;67811;42.656;23.394;2023-09-19T01:09:57;95431.41;;;15.19;72.70
77723;BME280;67811;42.656;23.394;2023-09-19T01:15:21;95434.88;;;15.86;72.58
77723;BME280;67811;42.656;23.394;2023-09-19T01:18:00;95441.88;;;15.53;72.12
77723;BME280;67811;42.656;23.394;2023-09-19T01:20:57;95437.75;;;15.91;72.01
77723;BME280;67811;42.656;23.394;2023-09-19T01:26:18;95430.38;;;15.79;73.04
77723;BME280;67811;42.656;23.394;2023-09-19T01:29:11;95436.97;;;15.44;72.34
77723;BME280;67811;42.656;23.394;2023-09-19T01:31:39;95442.09;;;15.39;73.83
77723;BME280;67811;42.656;23.394;2023-09-19T01:34:07;95430.97;;;15.81;74.13
77723;BME280;67811;42.656;23.394;2023-09-19T01:36:35;95445.13;;;16.60;71.71
77723;BME280;67811;42.656;23.394;2023-09-19T01:39:05;95432.38;;;17.00;68.78
77723;BME280;67811;42.656;23.394;2023-09-19T01:44:29;95424.91;;;16.64;70.98
77723;BME280;67811;42.656;23.394;2023-09-19T01:46:59;95429.09;;;15.95;70.94
77723;BME280;67811;42.656;23.394;2023-09-19T01:54:28;95425.84;;;15.80;73.71
77723;BME280;67811;42.656;23.394;2023-09-19T01:57:09;95419.66;;;15.86;71.93
77723;BME280;67811;42.656;23.394;2023-09-19T01:59:45;95423.19;;;15.80;71.65
77723;BME280;67811;42.656;23.394;2023-09-19T02:02:13;95428.88;;;15.97;74.03
77723;BME280;67811;42.656;23.394;2023-09-19T02:04:40;95431.72;;;16.08;70.38
77723;BME280;67811;42.656;23.394;2023-09-19T02:07:05;95439.56;;;16.03;72.15
77723;BME280;67811;42.656;23.394;2023-09-19T02:09:31;95438.38;;;16.51;72.43
77723;BME280;67811;42.656;23.394;2023-09-19T02:11:56;95439.75;;;17.36;69.58
77723;BME280;67811;42.656;23.394;2023-09-19T02:14:22;95438.16;;;17.54;66.75
77723;BME280;67811;42.656;23.394;2023-09-19T02:16:47;95435.91;;;17.51;66.19
77723;BME280;67811;42.656;23.394;2023-09-19T02:19:12;95436.13;;;17.49;67.90
77723;BME280;67811;42.656;23.394;2023-09-19T02:21:38;95437.16;;;17.48;66.66
77723;BME280;67811;42.656;23.394;2023-09-19T02:24:03;95436.38;;;17.16;65.39
77723;BME280;67811;42.656;23.394;2023-09-19T02:26:28;95433.38;;;16.61;67.26
77723;BME280;67811;42.656;23.394;2023-09-19T02:28:54;95441.78;;;16.65;68.99
77723;BME280;67811;42.656;23.394;2023-09-19T02:31:19;95437.25;;;16.20;68.91
77723;BME280;67811;42.656;23.394;2023-09-19T02:33:44;95431.19;;;15.93;70.47
77723;BME280;67811;42.656;23.394;2023-09-19T02:36:09;95434.06;;;15.59;72.11
77723;BME280;67811;42.656;23.394;2023-09-19T02:38:35;95411.47;;;15.41;73.16
77723;BME280;67811;42.656;23.394;2023-09-19T02:41:00;95408.81;;;15.41;72.64
77723;BME280;67811;42.656;23.394;2023-09-19T02:43:25;95407.38;;;15.32;73.25
77723;BME280;67811;42.656;23.394;2023-09-19T02:45:51;95407.19;;;15.14;74.21
77723;BME280;67811;42.656;23.394;2023-09-19T02:48:16;95402.06;;;15.12;74.72
77723;BME280;67811;42.656;23.394;2023-09-19T02:50:42;95403.88;;;15.05;75.21
77723;BME280;67811;42.656;23.394;2023-09-19T02:53:08;95396.91;;;14.91;74.80
77723;BME280;67811;42.656;23.394;2023-09-19T02:55:33;95390.94;;;14.82;75.25
77723;BME280;67811;42.656;23.394;2023-09-19T02:57:59;95395.44;;;14.88;75.59
77723;BME280;67811;42.656;23.394;2023-09-19T03:00:24;95391.75;;;14.76;75.70
77723;BME280;67811;42.656;23.394;2023-09-19T03:02:52;95394.19;;;14.51;76.64
77723;BME280;67811;42.656;23.394;2023-09-19T03:05:17;95390.63;;;14.44;76.90
77723;BME280;67811;42.656;23.394;2023-09-19T03:07:43;95387.81;;;14.65;77.74
77723;BME280;67811;42.656;23.394;2023-09-19T03:10:09;95389.94;;;14.90;76.35
77723;BME280;67811;42.656;23.394;2023-09-19T03:12:35;95383.97;;;15.34;75.95
77723;BME280;67811;42.656;23.394;2023-09-19T03:15:01;95374.31;;;15.46;73.28
77723;BME280;67811;42.656;23.394;2023-09-19T03:17:26;95383.13;;;15.47;73.28
77723;BME280;67811;42.656;23.394;2023-09-19T03:19:51;95370.00;;;15.25;74.05
77723;BME280;67811;42.656;23.394;2023-09-19T03:22:16;95384.59;;;15.23;73.76
77723;BME280;67811;42.656;23.394;2023-09-19T03:24:42;95380.44;;;15.60;73.89
77723;BME280;67811;42.656;23.394;2023-09-19T03:27:09;95382.28;;;15.79;71.37
77723;BME280;67811;42.656;23.394;2023-09-19T03:29:35;95374.09;;;15.21;72.77
77723;BME280;67811;42.656;23.394;2023-09-19T03:32:00;95383.13;;;14.87;74.52
77723;BME280;67811;42.656;23.394;2023-09-19T03:34:25;95374.31;;;14.73;75.48
77723;BME280;67811;42.656;23.394;2023-09-19T03:36:50;95380.84;;;14.51;76.70
77723;BME280;67811;42.656;23.394;2023-09-19T03:39:16;95383.66;;;16.47;74.93
77723;BME280;67811;42.656;23.394;2023-09-19T03:41:41;95379.63;;;18.12;66.76
77723;BME280;67811;42.656;23.394;2023-09-19T03:44:07;95379.69;;;19.03;62.95
77723;BME280;67811;42.656;23.394;2023-09-19T03:46:32;95382.66;;;18.53;61.13
77723;BME280;67811;42.656;23.394;2023-09-19T03:48:57;95383.47;;;18.83;61.47
77723;BME280;67811;42.656;23.394;2023-09-19T03:51:22;95380.13;;;19.65;58.86
77723;BME280;67811;42.656;23.394;2023-09-19T03:53:48;95384.44;;;19.78;57.61
77723;BME280;67811;42.656;23.394;2023-09-19T03:56:13;95384.31;;;20.60;54.77
77723;BME280;67811;42.656;23.394;2023-09-19T03:58:38;95383.09;;;20.96;53.90
77723;BME280;67811;42.656;23.394;2023-09-19T04:01:04;95394.03;;;21.51;52.02
77723;BME280;67811;42.656;23.394;2023-09-19T04:03:29;95387.69;;;21.96;50.41
77723;BME280;67811;42.656;23.394;2023-09-19T04:05:54;95389.59;;;22.34;48.51
77723;BME280;67811;42.656;23.394;2023-09-19T04:08:19;95394.16;;;22.12;49.02
77723;BME280;67811;42.656;23.394;2023-09-19T04:10:45;95402.88;;;22.19;49.48
77723;BME280;67811;42.656;23.394;2023-09-19T04:13:10;95400.91;;;22.53;49.03
77723;BME280;67811;42.656;23.394;2023-09-19T04:15:36;95402.81;;;22.36;48.67
77723;BME280;67811;42.656;23.394;2023-09-19T04:18:01;95403.22;;;22.45;48.03
77723;BME280;67811;42.656;23.394;2023-09-19T04:20:26;95412.25;;;20.18;53.28
77723;BME280;67811;42.656;23.394;2023-09-19T04:22:51;95410.84;;;20.16;53.78
77723;BME280;67811;42.656;23.394;2023-09-19T04:25:17;95410.53;;;19.77;55.18
77723;BME280;67811;42.656;23.394;2023-09-19T04:27:43;95409.53;;;19.25;56.61
77723;BME280;67811;42.656;23.394;2023-09-19T04:30:09;95411.06;;;18.90;58.64
77723;BME280;67811;42.656;23.394;2023-09-19T04:32:35;95411.59;;;18.62;59.12
77723;BME280;67811;42.656;23.394;2023-09-19T04:35:00;95414.59;;;18.24;60.75
77723;BME280;67811;42.656;23.394;2023-09-19T04:37:26;95410.69;;;18.02;61.70
77723;BME280;67811;42.656;23.394;2023-09-19T04:39:51;95410.13;;;17.25;63.38
77723;BME280;67811;42.656;23.394;2023-09-19T04:42:16;95402.38;;;16.47;67.08
77723;BME280;67811;42.656;23.394;2023-09-19T04:44:41;95404.94;;;16.73;65.67
77723;BME280;67811;42.656;23.394;2023-09-19T04:47:07;95411.34;;;16.59;65.91
77723;BME280;67811;42.656;23.394;2023-09-19T04:49:32;95395.03;;;16.36;67.82
77723;BME280;67811;42.656;23.394;2023-09-19T04:51:57;95409.84;;;16.38;67.41
77723;BME280;67811;42.656;23.394;2023-09-19T04:54:23;95405.53;;;16.30;70.13
77723;BME280;67811;42.656;23.394;2023-09-19T04:56:48;95401.19;;;15.38;71.62
77723;BME280;67811;42.656;23.394;2023-09-19T04:59:13;95406.75;;;15.83;70.46
77723;BME280;67811;42.656;23.394;2023-09-19T05:01:38;95400.03;;;16.19;68.93
77723;BME280;67811;42.656;23.394;2023-09-19T05:04:04;95407.31;;;15.92;69.28
77723;BME280;67811;42.656;23.394;2023-09-19T05:06:29;95389.88;;;15.76;70.11
77723;BME280;67811;42.656;23.394;2023-09-19T05:08:54;95391.94;;;15.80;70.40
77723;BME280;67811;42.656;23.394;2023-09-19T05:11:20;95391.72;;;15.89;70.16
77723;BME280;67811;42.656;23.394;2023-09-19T05:13:45;95383.84;;;16.07;69.89
77723;BME280;67811;42.656;23.394;2023-09-19T05:16:10;95386.19;;;16.35;69.18
77723;BME280;67811;42.656;23.394;2023-09-19T05:18:36;95396.34;;;16.58;67.37
77723;BME280;67811;42.656;23.394;2023-09-19T05:21:04;95397.50;;;16.75;66.97
77723;BME280;67811;42.656;23.394;2023-09-19T05:23:30;95402.91;;;17.00;66.79
77723;BME280;67811;42.656;23.394;2023-09-19T05:25:55;95396.72;;;17.31;65.19
77723;BME280;67811;42.656;23.394;2023-09-19T05:28:20;95401.28;;;17.74;62.94
77723;BME280;67811;42.656;23.394;2023-09-19T05:30:45;95386.53;;;18.38;63.05
77723;BME280;67811;42.656;23.394;2023-09-19T05:33:11;95383.28;;;18.66;61.21
77723;BME280;67811;42.656;23.394;2023-09-19T05:35:36;95379.88;;;18.89;61.94
77723;BME280;67811;42.656;23.394;2023-09-19T05:38:01;95374.84;;;18.81;59.27
77723;BME280;67811;42.656;23.394;2023-09-19T05:40:27;95377.28;;;18.83;58.92
77723;BME280;67811;42.656;23.394;2023-09-19T05:42:52;95358.88;;;18.38;59.80
77723;BME280;67811;42.656;23.394;2023-09-19T05:45:17;95371.56;;;18.31;60.41
77723;BME280;67811;42.656;23.394;2023-09-19T05:47:43;95373.81;;;18.15;60.94
77723;BME280;67811;42.656;23.394;2023-09-19T05:50:09;95373.25;;;18.43;61.71
77723;BME280;67811;42.656;23.394;2023-09-19T05:52:38;95374.44;;;17.99;62.68
77723;BME280;67811;42.656;23.394;2023-09-19T05:55:04;95370.97;;;18.47;60.16
77723;BME280;67811;42.656;23.394;2023-09-19T05:57:30;95366.88;;;18.56;61.18
77723;BME280;67811;42.656;23.394;2023-09-19T05:59:55;95367.56;;;18.70;59.83
77723;BME280;67811;42.656;23.394;2023-09-19T06:02:20;95364.84;;;18.40;60.38
77723;BME280;67811;42.656;23.394;2023-09-19T06:04:46;95363.41;;;18.86;60.54
77723;BME280;67811;42.656;23.394;2023-09-19T06:07:11;95368.72;;;19.16;59.01
77723;BME280;67811;42.656;23.394;2023-09-19T06:09:36;95359.66;;;19.52;58.44
77723;BME280;67811;42.656;23.394;2023-09-19T06:12:02;95358.47;;;19.83;56.53
77723;BME280;67811;42.656;23.394;2023-09-19T06:14:27;95356.13;;;19.98;56.37
77723;BME280;67811;42.656;23.394;2023-09-19T06:16:52;95350.53;;;19.41;57.15
77723;BME280;67811;42.656;23.394;2023-09-19T06:19:18;95361.28;;;18.76;59.88
77723;BME280;67811;42.656;23.394;2023-09-19T06:21:43;95355.63;;;18.66;61.53
77723;BME280;67811;42.656;23.394;2023-09-19T06:24:08;95361.03;;;18.78;60.15
77723;BME280;67811;42.656;23.394;2023-09-19T06:26:33;95363.50;;;18.49;60.93
77723;BME280;67811;42.656;23.394;2023-09-19T06:28:59;95355.84;;;18.64;60.74
77723;BME280;67811;42.656;23.394;2023-09-19T06:31:24;95353.44;;;19.16;60.13
77723;BME280;67811;42.656;23.394;2023-09-19T06:33:49;95357.66;;;19.12;59.79
77723;BME280;67811;42.656;23.394;2023-09-19T06:36:15;95349.19;;;19.62;59.09
77723;BME280;67811;42.656;23.394;2023-09-19T06:38:40;95351.94;;;19.56;58.89
77723;BME280;67811;42.656;23.394;2023-09-19T06:41:05;95332.78;;;19.76;56.60
77723;BME280;67811;42.656;23.394;2023-09-19T06:43:31;95350.31;;;19.43;57.24
77723;BME280;67811;42.656;23.394;2023-09-19T06:45:56;95352.81;;;18.12;62.06
77723;BME280;67811;42.656;23.394;2023-09-19T06:48:22;95357.94;;;18.92;60.87
77723;BME280;67811;42.656;23.394;2023-09-19T06:50:47;95357.31;;;19.56;58.93
77723;BME280;67811;42.656;23.394;2023-09-19T06:53:13;95364.41;;;20.09;56.98
77723;BME280;67811;42.656;23.394;2023-09-19T06:55:38;95358.03;;;20.38;56.43
77723;BME280;67811;42.656;23.394;2023-09-19T06:58:04;95358.47;;;19.83;56.80
77723;BME280;67811;42.656;23.394;2023-09-19T07:00:29;95359.66;;;19.87;56.44
77723;BME280;67811;42.656;23.394;2023-09-19T07:02:58;95354.91;;;20.30;55.15
77723;BME280;67811;42.656;23.394;2023-09-19T07:05:24;95356.47;;;20.42;54.96
77723;BME280;67811;42.656;23.394;2023-09-19T07:07:49;95357.44;;;20.36;55.22
77723;BME280;67811;42.656;23.394;2023-09-19T07:10:15;95359.66;;;20.79;54.79
77723;BME280;67811;42.656;23.394;2023-09-19T07:12:40;95366.28;;;21.34;53.88
77723;BME280;67811;42.656;23.394;2023-09-19T07:15:06;95363.28;;;21.69;52.19
77723;BME280;67811;42.656;23.394;2023-09-19T07:17:31;95367.19;;;21.95;51.76
77723;BME280;67811;42.656;23.394;2023-09-19T07:19:56;95364.19;;;21.75;50.72
77723;BME280;67811;42.656;23.394;2023-09-19T07:22:21;95367.97;;;21.57;51.20
77723;BME280;67811;42.656;23.394;2023-09-19T07:24:47;95362.09;;;21.60;52.72
77723;BME280;67811;42.656;23.394;2023-09-19T07:27:12;95367.34;;;21.33;52.77
77723;BME280;67811;42.656;23.394;2023-09-19T07:29:37;95362.84;;;21.55;52.92
77723;BME280;67811;42.656;23.394;2023-09-19T07:32:03;95365.25;;;21.74;51.97
77723;BME280;67811;42.656;23.394;2023-09-19T07:34:28;95361.84;;;22.00;51.83
77723;BME280;67811;42.656;23.394;2023-09-19T07:36:53;95363.91;;;22.10;49.97
77723;BME280;67811;42.656;23.394;2023-09-19T07:39:18;95364.47;;;21.95;51.82
77723;BME280;67811;42.656;23.394;2023-09-19T07:41:44;95357.78;;;21.81;51.17
77723;BME280;67811;42.656;23.394;2023-09-19T07:44:09;95361.13;;;21.33;50.47
77723;BME280;67811;42.656;23.394;2023-09-19T07:46:34;95359.28;;;21.04;52.01
77723;BME280;67811;42.656;23.394;2023-09-19T07:49:00;95358.72;;;21.19;53.50
77723;BME280;67811;42.656;23.394;2023-09-19T07:51:25;95372.03;;;21.26;53.46
77723;BME280;67811;42.656;23.394;2023-09-19T07:53:50;95365.69;;;21.49;51.36
77723;BME280;67811;42.656;23.394;2023-09-19T07:56:15;95363.78;;;21.83;50.48
77723;BME280;67811;42.656;23.394;2023-09-19T07:58:44;95372.38;;;21.46;51.46
77723;BME280;67811;42.656;23.394;2023-09-19T08:01:10;95371.91;;;21.33;51.43
77723;BME280;67811;42.656;23.394;2023-09-19T08:03:36;95367.78;;;21.13;51.36
77723;BME280;67811;42.656;23.394;2023-09-19T08:06:01;95367.00;;;20.84;53.07
77723;BME280;67811;42.656;23.394;2023-09-19T08:08:28;95368.41;;;21.32;51.53
77723;BME280;67811;42.656;23.394;2023-09-19T08:10:54;95371.88;;;21.16;51.11
77723;BME280;67811;42.656;23.394;2023-09-19T08:13:19;95369.50;;;20.74;54.44
77723;BME280;67811;42.656;23.394;2023-09-19T08:15:44;95364.69;;;21.21;52.13
77723;BME280;67811;42.656;23.394;2023-09-19T08:18:10;95358.59;;;21.43;51.00
77723;BME280;67811;42.656;23.394;2023-09-19T08:20:35;95351.44;;;21.03;52.72
77723;BME280;67811;42.656;23.394;2023-09-19T08:23:00;95351.88;;;21.45;50.98
77723;BME280;67811;42.656;23.394;2023-09-19T08:25:25;95342.16;;;21.61;51.37
77723;BME280;67811;42.656;23.394;2023-09-19T08:27:51;95339.91;;;21.75;50.87
77723;BME280;67811;42.656;23.394;2023-09-19T08:30:17;95337.97;;;21.70;50.13
77723;BME280;67811;42.656;23.394;2023-09-19T08:32:43;95332.47;;;21.43;51.43
77723;BME280;67811;42.656;23.394;2023-09-19T08:35:10;95337.31;;;20.50;54.56
77723;BME280;67811;42.656;23.394;2023-09-19T08:37:35;95338.47;;;21.17;53.38
77723;BME280;67811;42.656;23.394;2023-09-19T08:40:01;95342.78;;;21.68;51.26
77723;BME280;67811;42.656;23.394;2023-09-19T08:42:26;95338.69;;;21.82;50.54
77723;BME280;67811;42.656;23.394;2023-09-19T08:44:52;95343.97;;;21.94;50.29
77723;BME280;67811;42.656;23.394;2023-09-19T08:47:34;95343.28;;;21.65;50.21
77723;BME280;67811;42.656;23.394;2023-09-19T08:50:14;95343.94;;;21.22;51.47
77723;BME280;67811;42.656;23.394;2023-09-19T08:52:43;95338.22;;;21.18;51.91
77723;BME280;67811;42.656;23.394;2023-09-19T08:55:12;95335.97;;;21.44;51.63
77723;BME280;67811;42.656;23.394;2023-09-19T08:57:38;95333.72;;;21.96;50.50
77723;BME280;67811;42.656;23.394;2023-09-19T09:00:04;95337.44;;;22.56;49.32
77723;BME280;67811;42.656;23.394;2023-09-19T09:02:31;95320.25;;;22.89;47.90
77723;BME280;67811;42.656;23.394;2023-09-19T09:04:57;95328.47;;;22.99;47.77
77723;BME280;67811;42.656;23.394;2023-09-19T09:07:24;95327.59;;;22.94;47.76
77723;BME280;67811;42.656;23.394;2023-09-19T09:09:49;95323.50;;;22.64;48.09
77723;BME280;67811;42.656;23.394;2023-09-19T09:12:15;95317.22;;;22.85;47.87
77723;BME280;67811;42.656;23.394;2023-09-19T09:14:42;95313.41;;;22.81;47.87
77723;BME280;67811;42.656;23.394;2023-09-19T09:17:10;95312.00;;;22.79;47.84
77723;BME280;67811;42.656;23.394;2023-09-19T09:19:35;95319.09;;;22.85;47.99
77723;BME280;67811;42.656;23.394;2023-09-19T09:22:11;95307.91;;;22.98;46.92
77723;BME280;67811;42.656;23.394;2023-09-19T09:24:37;95309.47;;;22.40;48.23
77723;BME280;67811;42.656;23.394;2023-09-19T09:27:15;95301.47;;;22.50;48.32
77723;BME280;67811;42.656;23.394;2023-09-19T09:29:45;95295.66;;;22.37;48.71
77723;BME280;67811;42.656;23.394;2023-09-19T09:32:18;95293.41;;;22.82;48.79
77723;BME280;67811;42.656;23.394;2023-09-19T09:34:43;95290.16;;;23.45;46.43
77723;BME280;67811;42.656;23.394;2023-09-19T09:37:16;95301.13;;;23.28;45.79
77723;BME280;67811;42.656;23.394;2023-09-19T09:39:52;95283.97;;;23.49;45.43
77723;BME280;67811;42.656;23.394;2023-09-19T09:42:31;95289.63;;;23.48;46.03
77723;BME280;67811;42.656;23.394;2023-09-19T09:45:22;95281.09;;;24.13;45.55
77723;BME280;67811;42.656;23.394;2023-09-19T09:47:48;95272.56;;;23.89;44.56
77723;BME280;67811;42.656;23.394;2023-09-19T09:50:14;95277.97;;;23.42;45.09
77723;BME280;67811;42.656;23.394;2023-09-19T09:52:46;95276.41;;;22.82;47.03
77723;BME280;67811;42.656;23.394;2023-09-19T09:55:11;95265.81;;;23.02;46.50
77723;BME280;67811;42.656;23.394;2023-09-19T09:57:36;95272.38;;;22.57;47.46
77723;BME280;67811;42.656;23.394;2023-09-19T10:00:02;95265.72;;;22.65;47.22
77723;BME280;67811;42.656;23.394;2023-09-19T10:02:29;95259.16;;;23.20;46.76
77723;BME280;67811;42.656;23.394;2023-09-19T10:04:56;95258.88;;;23.59;45.01
77723;BME280;67811;42.656;23.394;2023-09-19T10:07:25;95266.28;;;23.79;45.30
77723;BME280;67811;42.656;23.394;2023-09-19T10:09:51;95268.09;;;23.21;45.86
77723;BME280;67811;42.656;23.394;2023-09-19T10:12:17;95266.63;;;23.45;46.78
77723;BME280;67811;42.656;23.394;2023-09-19T10:14:44;95266.41;;;23.57;45.11
77723;BME280;67811;42.656;23.394;2023-09-19T10:17:10;95260.47;;;23.55;45.17
77723;BME280;67811;42.656;23.394;2023-09-19T10:19:56;95256.31;;;23.79;45.38
77723;BME280;67811;42.656;23.394;2023-09-19T10:22:22;95257.22;;;24.05;45.95
77723;BME280;67811;42.656;23.394;2023-09-19T10:24:49;95246.97;;;24.23;44.65
77723;BME280;67811;42.656;23.394;2023-09-19T10:27:16;95246.78;;;24.44;45.35
77723;BME280;67811;42.656;23.394;2023-09-19T10:29:43;95246.28;;;24.53;44.18
77723;BME280;67811;42.656;23.394;2023-09-19T10:32:09;95244.13;;;24.65;45.25
77723;BME280;67811;42.656;23.394;2023-09-19T10:34:36;95247.13;;;24.68;43.53
77723;BME280;67811;42.656;23.394;2023-09-19T10:37:02;95240.34;;;24.71;43.11
77723;BME280;67811;42.656;23.394;2023-09-19T10:39:30;95239.34;;;24.04;43.60
77723;BME280;67811;42.656;23.394;2023-09-19T10:41:57;95243.41;;;23.54;45.54
77723;BME280;67811;42.656;23.394;2023-09-19T10:44:26;95235.28;;;23.49;45.05
77723;BME280;67811;42.656;23.394;2023-09-19T10:46:52;95235.72;;;23.78;45.53
77723;BME280;67811;42.656;23.394;2023-09-19T10:49:19;95239.91;;;24.11;44.20
77723;BME280;67811;42.656;23.394;2023-09-19T10:51:45;95235.13;;;24.39;45.72
77723;BME280;67811;42.656;23.394;2023-09-19T10:54:13;95226.41;;;24.27;45.51
77723;BME280;67811;42.656;23.394;2023-09-19T10:56:46;95226.44;;;24.32;45.65
77723;BME280;67811;42.656;23.394;2023-09-19T10:59:18;95223.81;;;24.52;46.62
77723;BME280;67811;42.656;23.394;2023-09-19T11:01:55;95225.44;;;24.68;43.09
77723;BME280;67811;42.656;23.394;2023-09-19T11:12:10;95212.41;;;24.60;46.03
77723;BME280;67811;42.656;23.394;2023-09-19T11:14:40;95218.16;;;24.94;43.12
77723;BME280;67811;42.656;23.394;2023-09-19T11:30:32;95199.31;;;25.59;41.84
77723;BME280;67811;42.656;23.394;2023-09-19T11:46:12;95179.00;;;25.52;40.77
77723;BME280;67811;42.656;23.394;2023-09-19T11:48:38;95179.03;;;25.41;42.27
77723;BME280;67811;42.656;23.394;2023-09-19T11:51:13;95162.38;;;25.73;42.08
77723;BME280;67811;42.656;23.394;2023-09-19T11:53:39;95154.63;;;26.06;40.86
77723;BME280;67811;42.656;23.394;2023-09-19T11:56:06;95149.78;;;25.98;40.30
77723;BME280;67811;42.656;23.394;2023-09-19T11:58:31;95144.19;;;25.79;41.34
77723;BME280;67811;42.656;23.394;2023-09-19T12:00:59;95150.34;;;26.00;40.57
77723;BME280;67811;42.656;23.394;2023-09-19T12:03:29;95156.22;;;26.12;40.86
77723;BME280;67811;42.656;23.394;2023-09-19T12:05:54;95151.09;;;26.11;40.51
77723;BME280;67811;42.656;23.394;2023-09-19T12:08:20;95150.81;;;26.07;41.13
77723;BME280;67811;42.656;23.394;2023-09-19T12:10:51;95151.53;;;26.28;39.70
77723;BME280;67811;42.656;23.394;2023-09-19T12:13:19;95149.94;;;26.61;40.11
77723;BME280;67811;42.656;23.394;2023-09-19T12:15:45;95144.22;;;26.92;38.80
77723;BME280;67811;42.656;23.394;2023-09-19T12:18:28;95132.69;;;27.10;39.14
77723;BME280;67811;42.656;23.394;2023-09-19T12:20:54;95136.16;;;27.16;38.13
77723;BME280;67811;42.656;23.394;2023-09-19T12:23:19;95132.69;;;27.34;38.39
77723;BME280;67811;42.656;23.394;2023-09-19T12:25:45;95130.50;;;27.60;37.94
77723;BME280;67811;42.656;23.394;2023-09-19T12:28:11;95126.63;;;28.09;36.63
77723;BME280;67811;42.656;23.394;2023-09-19T12:30:37;95122.50;;;28.30;36.06
77723;BME280;67811;42.656;23.394;2023-09-19T12:33:02;95116.81;;;28.46;35.92
77723;BME280;67811;42.656;23.394;2023-09-19T12:37:53;95114.63;;;29.13;33.97
77723;BME280;67811;42.656;23.394;2023-09-19T12:40:21;95112.41;;;28.82;34.85
77723;BME280;67811;42.656;23.394;2023-09-19T12:42:46;95104.59;;;28.24;35.80
77723;BME280;67811;42.656;23.394;2023-09-19T12:45:13;95104.59;;;28.05;35.80
77723;BME280;67811;42.656;23.394;2023-09-19T12:47:39;95094.41;;;27.73;37.27
77723;BME280;67811;42.656;23.394;2023-09-19T12:50:09;95107.06;;;28.02;36.98
77723;BME280;67811;42.656;23.394;2023-09-19T12:52:38;95102.22;;;28.18;35.98
77723;BME280;67811;42.656;23.394;2023-09-19T12:55:04;95099.16;;;28.24;35.62
77723;BME280;67811;42.656;23.394;2023-09-19T12:57:29;95105.72;;;28.42;35.82
77723;BME280;67811;42.656;23.394;2023-09-19T12:59:54;95097.50;;;28.94;35.06
77723;BME280;67811;42.656;23.394;2023-09-19T13:02:20;95096.03;;;29.43;34.27
77723;BME280;67811;42.656;23.394;2023-09-19T13:04:54;95081.69;;;29.64;33.82
77723;BME280;67811;42.656;23.394;2023-09-19T13:07:45;95085.25;;;30.01;33.18
77723;BME280;67811;42.656;23.394;2023-09-19T13:10:11;95085.44;;;30.18;32.16
77723;BME280;67811;42.656;23.394;2023-09-19T13:12:38;95083.50;;;29.69;32.84
77723;BME280;67811;42.656;23.394;2023-09-19T13:15:15;95081.44;;;29.06;34.13
77723;BME280;67811;42.656;23.394;2023-09-19T13:17:43;95080.81;;;28.95;34.35
77723;BME280;67811;42.656;23.394;2023-09-19T13:20:26;95075.16;;;28.92;34.76
77723;BME280;67811;42.656;23.394;2023-09-19T13:22:52;95069.94;;;29.23;34.21
77723;BME280;67811;42.656;23.394;2023-09-19T13:25:18;95065.19;;;29.28;33.88
77723;BME280;67811;42.656;23.394;2023-09-19T13:27:47;95066.72;;;29.21;34.21
77723;BME280;67811;42.656;23.394;2023-09-19T13:30:12;95074.31;;;28.77;34.85
77723;BME280;67811;42.656;23.394;2023-09-19T13:32:38;95065.22;;;28.68;34.95
77723;BME280;67811;42.656;23.394;2023-09-19T13:35:04;95067.38;;;28.52;35.61
77723;BME280;67811;42.656;23.394;2023-09-19T13:37:29;95066.97;;;27.70;36.11
77723;BME280;67811;42.656;23.394;2023-09-19T13:39:54;95055.56;;;26.96;38.11